createdAt,value
2024-01-15T00:00:05.589Z,8.30
2024-01-15T00:02:38.498Z,9.50
2024-01-15T00:05:05.833Z,8.30
2024-01-15T00:07:33.019Z,9.73
2024-01-15T00:10:00.412Z,9.13
2024-01-15T00:12:27.758Z,9.10
2024-01-15T00:14:55.351Z,10.00
2024-01-15T00:17:22.649Z,9.73
2024-01-15T00:19:50.082Z,10.00
2024-01-15T00:22:17.374Z,8.10
2024-01-15T00:24:44.669Z,10.07
2024-01-15T00:27:11.998Z,7.37
2024-01-15T00:29:39.343Z,7.67
2024-01-15T00:32:06.945Z,9.80
2024-01-15T00:34:34.393Z,11.00
2024-01-15T00:37:01.788Z,9.90
2024-01-15T00:39:29.033Z,10.27
2024-01-15T00:41:56.340Z,10.67
2024-01-15T00:44:23.545Z,10.23
2024-01-15T00:46:50.833Z,11.63
2024-01-15T00:49:18.323Z,9.87
2024-01-15T00:51:45.751Z,10.40
2024-01-15T00:54:13.054Z,9.13
2024-01-15T00:56:40.619Z,11.37
2024-01-15T00:59:07.812Z,9.77
2024-01-15T01:01:34.977Z,10.00
2024-01-15T01:04:02.524Z,11.60
2024-01-15T01:06:31.973Z,9.40
2024-01-15T01:09:00.722Z,9.30
2024-01-15T01:11:28.058Z,9.37
2024-01-15T01:13:55.281Z,8.63
2024-01-15T01:16:22.455Z,7.60
2024-01-15T01:18:49.834Z,12.47
2024-01-15T01:21:18.126Z,10.07
2024-01-15T01:23:45.561Z,10.80
2024-01-15T01:26:17.675Z,11.40
2024-01-15T01:28:45.109Z,8.73
2024-01-15T01:31:12.428Z,10.97
2024-01-15T01:33:41.377Z,10.17
2024-01-15T01:36:10.386Z,10.10
2024-01-15T01:38:38.857Z,10.00
2024-01-15T01:41:06.161Z,9.17
2024-01-15T01:43:33.388Z,10.20
2024-01-15T01:46:02.544Z,9.40
2024-01-15T01:48:31.361Z,10.67
2024-01-15T01:51:01.140Z,10.63
2024-01-15T01:53:30.872Z,9.20
2024-01-15T01:55:58.991Z,10.53
2024-01-15T01:58:27.117Z,10.10
2024-01-15T02:00:55.451Z,9.57
2024-01-15T02:03:23.212Z,10.70
2024-01-15T02:05:51.066Z,12.10
2024-01-15T02:08:18.547Z,11.23
2024-01-15T02:10:45.916Z,10.67
2024-01-15T02:13:13.220Z,11.93
2024-01-15T02:15:41.198Z,10.33
2024-01-15T02:18:09.750Z,11.27
2024-01-15T02:20:37.918Z,10.13
2024-01-15T02:23:16.560Z,12.33
2024-01-15T02:25:45.774Z,10.83
2024-01-15T02:28:14.891Z,10.70
2024-01-15T02:30:43.777Z,10.40
2024-01-15T02:33:12.832Z,11.23
2024-01-15T02:35:40.229Z,11.13
2024-01-15T02:38:07.944Z,10.90
2024-01-15T02:40:36.068Z,10.60
2024-01-15T02:43:03.381Z,12.50
2024-01-15T02:45:31.034Z,10.10
2024-01-15T02:47:58.402Z,11.33
2024-01-15T02:50:25.735Z,9.63
2024-01-15T02:52:53.474Z,12.93
2024-01-15T02:55:20.998Z,11.90
2024-01-15T02:57:48.216Z,13.60
2024-01-15T03:00:15.928Z,12.80
2024-01-15T03:02:48.786Z,11.60
2024-01-15T03:05:16.626Z,10.80
2024-01-15T03:07:44.780Z,12.17
2024-01-15T03:10:12.081Z,11.90
2024-01-15T03:12:39.292Z,12.40
2024-01-15T03:15:07.149Z,11.80
2024-01-15T03:17:34.544Z,12.13
2024-01-15T03:20:02.095Z,10.67
2024-01-15T03:22:32.342Z,13.83
2024-01-15T03:24:59.635Z,11.13
2024-01-15T03:27:27.459Z,12.57
2024-01-15T03:29:54.817Z,11.17
2024-01-15T03:32:22.140Z,12.33
2024-01-15T03:34:49.800Z,12.43
2024-01-15T03:37:17.199Z,10.93
2024-01-15T03:39:44.492Z,11.97
2024-01-15T03:42:11.721Z,12.23
2024-01-15T03:44:38.960Z,10.87
2024-01-15T03:47:06.218Z,11.97
2024-01-15T03:49:33.681Z,15.43
2024-01-15T03:52:01.065Z,15.17
2024-01-15T03:54:28.312Z,14.23
2024-01-15T03:56:55.602Z,13.80
2024-01-15T03:59:22.816Z,13.47
2024-01-15T04:01:52.128Z,15.67
2024-01-15T04:04:20.003Z,14.20
2024-01-15T04:06:47.651Z,14.00
2024-01-15T04:09:15.542Z,14.43
2024-01-15T04:11:42.939Z,12.20
2024-01-15T04:14:10.260Z,11.90
2024-01-15T04:16:38.978Z,12.83
2024-01-15T04:19:06.576Z,13.43
2024-01-15T04:21:34.049Z,14.07
2024-01-15T04:24:01.359Z,15.50
2024-01-15T04:26:28.674Z,13.57
2024-01-15T04:28:56.015Z,12.33
2024-01-15T04:31:28.419Z,13.93
2024-01-15T04:33:56.411Z,13.60
2024-01-15T04:36:23.827Z,13.47
2024-01-15T04:38:51.181Z,14.70
2024-01-15T04:41:18.548Z,13.83
2024-01-15T04:43:45.861Z,12.90
2024-01-15T04:46:13.201Z,12.63
2024-01-15T04:48:40.554Z,13.67
2024-01-15T04:51:10.707Z,15.23
2024-01-15T04:53:38.157Z,15.17
2024-01-15T04:56:05.867Z,13.27
2024-01-15T04:58:33.156Z,15.97
2024-01-15T05:01:00.564Z,14.07
2024-01-15T05:03:28.172Z,14.67
2024-01-15T05:05:56.478Z,16.87
2024-01-15T05:08:23.800Z,14.10
2024-01-15T05:10:50.979Z,14.00
2024-01-15T05:13:18.184Z,14.97
2024-01-15T05:15:45.352Z,11.60
2024-01-15T05:18:13.997Z,14.57
2024-01-15T05:20:41.320Z,14.33
2024-01-15T05:23:08.516Z,14.37
2024-01-15T05:25:35.821Z,16.40
2024-01-15T05:28:03.502Z,16.57
2024-01-15T05:30:30.830Z,17.60
2024-01-15T05:32:59.042Z,13.03
2024-01-15T05:35:26.287Z,17.00
2024-01-15T05:37:53.637Z,15.13
2024-01-15T05:40:20.909Z,15.00
2024-01-15T05:42:48.324Z,16.27
2024-01-15T05:45:15.791Z,14.73
2024-01-15T05:47:43.114Z,14.03
2024-01-15T05:50:10.703Z,16.80
2024-01-15T05:52:37.992Z,15.70
2024-01-15T05:55:06.175Z,16.77
2024-01-15T05:57:33.449Z,18.40
2024-01-15T06:00:01.631Z,14.80
2024-01-15T06:02:32.064Z,21.03
2024-01-15T06:04:59.360Z,17.93
2024-01-15T06:07:26.729Z,20.57
2024-01-15T06:09:53.996Z,15.40
2024-01-15T06:12:21.255Z,15.33
2024-01-15T06:14:48.603Z,17.97
2024-01-15T06:17:15.948Z,15.40
2024-01-15T06:19:43.233Z,17.07
2024-01-15T06:22:10.454Z,16.07
2024-01-15T06:24:37.935Z,14.03
2024-01-15T06:27:05.318Z,16.97
2024-01-15T06:29:33.498Z,13.60
2024-01-15T06:32:00.753Z,17.77
2024-01-15T06:34:28.051Z,17.07
2024-01-15T06:36:55.710Z,15.77
2024-01-15T06:39:23.076Z,14.60
2024-01-15T06:41:50.363Z,16.40
2024-01-15T06:44:17.796Z,15.43
2024-01-15T06:46:45.354Z,12.57
2024-01-15T06:49:13.614Z,13.47
2024-01-15T06:51:41.391Z,16.37
2024-01-15T06:54:09.047Z,13.67
2024-01-15T06:56:36.704Z,17.17
2024-01-15T06:59:04.185Z,15.13
2024-01-15T07:01:31.777Z,17.13
2024-01-15T07:04:00.297Z,15.20
2024-01-15T07:06:27.800Z,16.57
2024-01-15T07:08:55.025Z,15.57
2024-01-15T07:11:22.245Z,19.07
2024-01-15T07:13:49.740Z,16.80
2024-01-15T07:16:30.109Z,16.53
2024-01-15T07:19:04.195Z,17.83
2024-01-15T07:21:31.548Z,15.83
2024-01-15T07:23:58.811Z,14.13
2024-01-15T07:26:26.680Z,15.93
2024-01-15T07:28:53.981Z,17.97
2024-01-15T07:31:21.316Z,14.63
2024-01-15T07:33:48.881Z,16.83
2024-01-15T07:36:16.480Z,17.13
2024-01-15T07:38:44.331Z,15.77
2024-01-15T07:41:11.619Z,16.30
2024-01-15T07:43:40.172Z,18.00
2024-01-15T07:46:08.567Z,19.13
2024-01-15T07:48:36.328Z,21.27
2024-01-15T07:51:05.375Z,17.03
2024-01-15T07:53:32.580Z,14.60
2024-01-15T07:55:59.968Z,15.20
2024-01-15T07:58:27.247Z,17.00
2024-01-15T08:00:54.620Z,17.00
2024-01-15T08:03:21.943Z,18.10
2024-01-15T08:05:51.995Z,16.87
2024-01-15T08:08:20.103Z,17.20
2024-01-15T08:10:47.448Z,17.70
2024-01-15T08:13:14.673Z,18.50
2024-01-15T08:15:43.927Z,16.20
2024-01-15T08:18:11.353Z,17.13
2024-01-15T08:20:38.848Z,16.30
2024-01-15T08:23:06.221Z,15.63
2024-01-15T08:25:33.543Z,16.40
2024-01-15T08:28:00.953Z,16.07
2024-01-15T08:30:29.477Z,17.50
2024-01-15T08:33:02.374Z,14.13
2024-01-15T08:35:36.666Z,17.20
2024-01-15T08:38:05.158Z,16.47
2024-01-15T08:40:32.478Z,16.77
2024-01-15T08:42:59.855Z,16.23
2024-01-15T08:45:28.288Z,17.43
2024-01-15T08:47:57.260Z,15.90
2024-01-15T08:50:24.512Z,14.00
2024-01-15T08:52:52.005Z,15.53
2024-01-15T08:55:19.600Z,15.83
2024-01-15T08:57:46.958Z,14.57
2024-01-15T09:00:14.719Z,16.23
2024-01-15T09:02:42.030Z,17.27
2024-01-15T09:05:09.899Z,16.53
2024-01-15T09:07:37.396Z,18.20
2024-01-15T09:10:04.937Z,15.20
2024-01-15T09:12:33.147Z,15.00
2024-01-15T09:15:01.020Z,16.17
2024-01-15T09:17:29.630Z,15.07
2024-01-15T09:19:57.308Z,15.60
2024-01-15T09:22:24.688Z,17.23
2024-01-15T09:24:51.962Z,15.00
2024-01-15T09:27:19.285Z,16.27
2024-01-15T09:29:47.478Z,15.23
2024-01-15T09:32:14.811Z,15.77
2024-01-15T09:34:43.063Z,16.37
2024-01-15T09:37:14.732Z,14.60
2024-01-15T09:39:46.304Z,16.20
2024-01-15T09:42:14.466Z,16.30
2024-01-15T09:44:42.677Z,16.23
2024-01-15T09:47:10.495Z,17.33
2024-01-15T09:49:38.830Z,15.73
2024-01-15T09:52:11.785Z,16.57
2024-01-15T09:54:41.584Z,18.52
2024-01-15T09:57:09.117Z,17.40
2024-01-15T09:59:37.826Z,15.23
2024-01-15T10:02:06.957Z,15.60
2024-01-15T10:04:34.476Z,15.10
2024-01-15T10:07:02.493Z,17.60
2024-01-15T10:09:29.946Z,16.13
2024-01-15T10:11:57.273Z,16.10
2024-01-15T10:14:24.646Z,16.37
2024-01-15T10:16:52.103Z,17.20
2024-01-15T10:19:19.555Z,15.37
2024-01-15T10:21:48.313Z,17.20
2024-01-15T10:24:15.779Z,16.20
2024-01-15T10:26:43.018Z,16.03
2024-01-15T10:29:12.128Z,15.90
2024-01-15T10:31:39.636Z,15.57
2024-01-15T10:34:14.668Z,16.33
2024-01-15T10:36:42.614Z,15.82
2024-01-15T10:39:10.065Z,16.08
2024-01-15T10:41:37.454Z,16.53
2024-01-15T10:44:04.982Z,13.93
2024-01-15T10:46:34.126Z,15.77
2024-01-15T10:49:01.824Z,14.00
2024-01-15T10:51:30.172Z,15.03
2024-01-15T10:53:58.665Z,15.17
2024-01-15T10:56:28.988Z,16.38
2024-01-15T10:59:00.476Z,14.90
2024-01-15T11:01:30.952Z,15.23
2024-01-15T11:03:59.572Z,13.90
2024-01-15T11:06:30.400Z,14.37
2024-01-15T11:08:58.307Z,15.83
2024-01-15T11:11:26.799Z,15.57
2024-01-15T11:13:54.226Z,15.53
2024-01-15T11:16:21.490Z,14.25
2024-01-15T11:19:00.702Z,15.60
2024-01-15T11:21:31.233Z,17.17
2024-01-15T11:24:03.085Z,15.37
2024-01-15T11:26:42.134Z,14.80
2024-01-15T11:29:31.014Z,15.98
2024-01-15T11:32:02.270Z,15.37
2024-01-15T11:34:51.826Z,15.90
2024-01-15T11:37:23.204Z,15.33
2024-01-15T11:39:53.685Z,16.55
2024-01-15T11:42:23.246Z,14.60
2024-01-15T11:44:51.225Z,16.40
2024-01-15T11:47:44.058Z,15.98
2024-01-15T11:50:12.945Z,17.13
2024-01-15T11:52:40.507Z,15.45
2024-01-15T11:55:21.026Z,15.37
2024-01-15T11:57:52.226Z,16.70
2024-01-15T12:00:19.967Z,13.80
2024-01-15T12:02:48.677Z,15.43
2024-01-15T12:05:20.541Z,13.73
2024-01-15T12:07:49.220Z,15.45
2024-01-15T12:10:19.341Z,14.48
2024-01-15T12:13:00.617Z,14.87
2024-01-15T12:15:30.838Z,15.32
2024-01-15T12:18:00.076Z,13.27
2024-01-15T12:20:31.642Z,14.33
2024-01-15T12:23:02.457Z,15.57
2024-01-15T12:25:32.842Z,13.57
2024-01-15T12:28:01.705Z,15.43
2024-01-15T12:30:30.414Z,15.43
2024-01-15T12:32:57.860Z,12.52
2024-01-15T12:35:28.667Z,14.73
2024-01-15T12:37:56.849Z,14.47
2024-01-15T12:40:24.921Z,15.27
2024-01-15T12:42:52.321Z,13.95
2024-01-15T12:45:20.688Z,17.73
2024-01-15T12:47:48.526Z,15.48
2024-01-15T12:50:19.452Z,15.00
2024-01-15T12:52:48.453Z,14.93
2024-01-15T12:55:16.619Z,14.30
2024-01-15T12:57:47.025Z,16.27
2024-01-15T13:00:16.350Z,13.97
2024-01-15T13:02:45.125Z,16.57
2024-01-15T13:05:14.845Z,15.30
2024-01-15T13:07:44.253Z,14.97
2024-01-15T13:10:12.520Z,14.15
2024-01-15T13:12:41.649Z,13.70
2024-01-15T13:15:14.684Z,14.40
2024-01-15T13:17:43.978Z,15.20
2024-01-15T13:20:13.814Z,13.20
2024-01-15T13:22:45.452Z,16.40
2024-01-15T13:25:13.373Z,13.23
2024-01-15T13:27:41.869Z,13.52
2024-01-15T13:30:12.002Z,14.27
2024-01-15T13:33:16.990Z,14.48
2024-01-15T13:35:44.454Z,13.95
2024-01-15T13:38:12.441Z,13.63
2024-01-15T13:40:39.736Z,15.83
2024-01-15T13:43:09.651Z,14.27
2024-01-15T13:45:38.735Z,13.75
2024-01-15T13:48:07.004Z,14.33
2024-01-15T13:50:34.413Z,15.13
2024-01-15T13:53:01.582Z,15.37
2024-01-15T13:55:30.370Z,14.17
2024-01-15T13:57:57.865Z,16.50
2024-01-15T14:00:25.338Z,15.13
2024-01-15T14:02:52.629Z,15.73
2024-01-15T14:05:20.201Z,15.48
2024-01-15T14:07:48.519Z,14.57
2024-01-15T14:10:15.910Z,13.25
2024-01-15T14:12:44.980Z,13.93
2024-01-15T14:15:13.191Z,14.50
2024-01-15T14:17:40.758Z,15.15
2024-01-15T14:20:10.554Z,16.70
2024-01-15T14:22:37.826Z,14.98
2024-01-15T14:25:05.761Z,15.83
2024-01-15T14:27:34.099Z,14.70
2024-01-15T14:30:01.997Z,15.80
2024-01-15T14:32:31.951Z,16.40
2024-01-15T14:34:59.369Z,17.43
2024-01-15T14:37:27.235Z,14.77
2024-01-15T14:39:54.687Z,13.93
2024-01-15T14:42:22.119Z,16.80
2024-01-15T14:44:49.487Z,15.73
2024-01-15T14:47:16.837Z,16.40
2024-01-15T14:49:44.131Z,16.27
2024-01-15T14:52:11.440Z,17.23
2024-01-15T14:54:38.850Z,15.63
2024-01-15T14:57:07.572Z,18.20
2024-01-15T14:59:35.004Z,15.57
2024-01-15T15:02:02.398Z,17.73
2024-01-15T15:04:30.006Z,16.27
2024-01-15T15:06:58.296Z,16.30
2024-01-15T15:09:25.721Z,15.45
2024-01-15T15:11:53.368Z,15.90
2024-01-15T15:14:20.573Z,16.77
2024-01-15T15:16:47.892Z,16.60
2024-01-15T15:19:15.226Z,16.60
2024-01-15T15:21:42.618Z,15.80
2024-01-15T15:24:10.310Z,17.35
2024-01-15T15:26:38.053Z,18.57
2024-01-15T15:29:05.701Z,18.13
2024-01-15T15:31:32.983Z,17.83
2024-01-15T15:34:00.538Z,17.13
2024-01-15T15:36:27.768Z,15.65
2024-01-15T15:38:58.446Z,16.17
2024-01-15T15:41:27.190Z,16.98
2024-01-15T15:43:54.863Z,17.25
2024-01-15T15:46:22.607Z,18.10
2024-01-15T15:48:50.062Z,16.60
2024-01-15T15:51:18.634Z,18.87
2024-01-15T15:53:45.998Z,18.73
2024-01-15T15:56:13.224Z,16.90
2024-01-15T15:58:41.379Z,16.97
2024-01-15T16:01:08.726Z,18.30
2024-01-15T16:03:55.060Z,18.07
2024-01-15T16:06:22.535Z,16.52
2024-01-15T16:08:49.861Z,15.90
2024-01-15T16:11:17.246Z,17.23
2024-01-15T16:13:44.955Z,14.63
2024-01-15T16:23:10.155Z,15.97
2024-01-15T16:23:23.148Z,15.73
2024-01-15T16:23:38.174Z,16.67
2024-01-15T16:27:18.804Z,14.93
2024-01-15T16:29:46.623Z,14.73
2024-01-15T16:32:14.266Z,16.80
2024-01-15T16:34:41.748Z,15.90
2024-01-15T16:37:10.522Z,14.30
2024-01-15T16:39:38.034Z,16.85
2024-01-15T16:42:06.823Z,15.70
2024-01-15T16:44:34.257Z,16.88
2024-01-15T16:47:05.086Z,16.20
2024-01-15T16:49:34.004Z,16.80
2024-01-15T16:52:01.813Z,19.20
2024-01-15T16:54:29.278Z,17.88
2024-01-15T16:56:57.519Z,18.27
2024-01-15T16:59:25.057Z,16.42
2024-01-15T17:02:11.054Z,17.90
2024-01-15T17:04:38.328Z,17.40
2024-01-15T17:07:05.550Z,17.27
2024-01-15T17:09:32.746Z,16.10
2024-01-15T17:11:59.944Z,18.37
2024-01-15T17:14:27.246Z,16.45
2024-01-15T17:16:56.683Z,15.38
2024-01-15T17:19:23.978Z,16.75
2024-01-15T17:21:51.326Z,17.00
2024-01-15T17:24:18.565Z,17.00
2024-01-15T17:26:45.876Z,17.30
2024-01-15T17:29:13.415Z,16.65
2024-01-15T17:31:41.098Z,16.38
2024-01-15T17:34:09.138Z,16.13
2024-01-15T17:36:36.395Z,16.70
2024-01-15T17:39:05.100Z,17.60
2024-01-15T17:41:34.293Z,18.58
2024-01-15T17:44:02.557Z,19.73
2024-01-15T17:46:30.418Z,18.70
2024-01-15T17:49:03.911Z,19.07
2024-01-15T17:51:32.938Z,17.73
2024-01-15T17:54:00.491Z,16.27
2024-01-15T17:56:28.227Z,15.47
2024-01-15T17:58:57.090Z,18.02
2024-01-15T18:01:24.513Z,18.13
2024-01-15T18:03:54.816Z,17.52
2024-01-15T18:06:22.759Z,14.47
2024-01-15T18:08:50.322Z,16.90
2024-01-15T18:11:19.451Z,16.67
2024-01-15T18:13:47.597Z,15.47
2024-01-15T18:16:15.320Z,15.77
2024-01-15T18:18:42.886Z,17.83
2024-01-15T18:21:10.222Z,17.03
2024-01-15T18:23:37.576Z,18.67
2024-01-15T18:26:06.312Z,17.33
2024-01-15T18:28:33.604Z,19.43
2024-01-15T18:31:00.861Z,18.87
2024-01-15T18:33:28.202Z,17.70
2024-01-15T18:35:55.569Z,18.70
2024-01-15T18:38:22.947Z,20.07
2024-01-15T18:40:50.446Z,17.70
2024-01-15T18:43:17.672Z,19.07
2024-01-15T18:45:44.999Z,17.57
2024-01-15T18:48:12.435Z,17.70
2024-01-15T18:50:40.726Z,16.77
2024-01-15T18:53:08.151Z,17.73
2024-01-15T18:55:35.468Z,15.55
2024-01-15T18:58:02.732Z,16.00
2024-01-15T19:00:30.053Z,15.33
2024-01-15T19:02:59.340Z,16.13
2024-01-15T19:05:27.036Z,17.55
2024-01-15T19:07:54.879Z,19.00
2024-01-15T19:10:23.228Z,18.55
2024-01-15T19:12:50.520Z,18.27
2024-01-15T19:15:20.995Z,19.57
2024-01-15T19:17:50.258Z,18.47
2024-01-15T19:20:18.612Z,17.30
2024-01-15T19:22:46.816Z,21.13
2024-01-15T19:25:14.316Z,19.57
2024-01-15T19:27:44.754Z,21.17
2024-01-15T19:30:15.417Z,19.10
2024-01-15T19:32:42.922Z,18.80
2024-01-15T19:35:13.975Z,21.53
2024-01-15T19:37:41.365Z,19.63
2024-01-15T19:40:09.189Z,17.83
2024-01-15T19:42:37.395Z,18.57
2024-01-15T19:45:05.979Z,18.70
2024-01-15T19:47:33.675Z,21.33
2024-01-15T19:50:01.232Z,18.47
2024-01-15T19:52:30.334Z,23.43
2024-01-15T19:54:57.684Z,19.27
2024-01-15T19:57:25.074Z,20.77
2024-01-15T19:59:55.844Z,19.63
2024-01-15T20:02:23.140Z,20.00
2024-01-15T20:04:50.427Z,17.43
2024-01-15T20:07:17.670Z,19.03
2024-01-15T20:09:46.119Z,18.77
2024-01-15T20:12:13.476Z,17.53
2024-01-15T20:14:40.730Z,19.30
2024-01-15T20:17:08.225Z,17.70
2024-01-15T20:19:35.725Z,20.57
2024-01-15T20:22:03.155Z,18.87
2024-01-15T20:24:30.574Z,16.60
2024-01-15T20:26:58.706Z,19.33
2024-01-15T20:29:25.935Z,18.10
2024-01-15T20:31:53.552Z,17.55
2024-01-15T20:34:20.858Z,19.27
2024-01-15T20:36:49.035Z,17.98
2024-01-15T20:39:16.361Z,19.25
2024-01-15T20:41:43.691Z,18.60
2024-01-15T20:44:11.044Z,18.92
2024-01-15T20:46:38.231Z,19.08
2024-01-15T20:49:05.545Z,22.67
2024-01-15T20:51:32.763Z,19.83
2024-01-15T20:53:59.982Z,18.60
2024-01-15T20:56:27.149Z,19.00
2024-01-15T20:58:54.394Z,19.35
2024-01-15T21:01:21.670Z,21.03
2024-01-15T21:03:49.079Z,18.42
2024-01-15T21:06:16.613Z,18.47
2024-01-15T21:08:44.568Z,19.05
2024-01-15T21:11:13.686Z,19.70
2024-01-15T21:13:41.268Z,19.60
2024-01-15T21:16:08.722Z,18.23
2024-01-15T21:18:36.221Z,18.88
2024-01-15T21:21:03.803Z,17.98
2024-01-15T21:23:32.648Z,20.08
2024-01-15T21:26:01.105Z,17.40
2024-01-15T21:28:31.400Z,17.42
2024-01-15T21:31:00.982Z,18.93
2024-01-15T21:33:38.156Z,18.42
2024-01-15T21:36:06.383Z,20.23
2024-01-15T21:38:33.724Z,20.23
2024-01-15T21:41:01.099Z,18.60
2024-01-15T21:43:28.422Z,17.15
2024-01-15T21:45:55.658Z,17.98
2024-01-15T21:48:23.106Z,18.65
2024-01-15T21:50:51.115Z,19.60
2024-01-15T21:53:18.385Z,19.23
2024-01-15T21:55:45.692Z,17.45
2024-01-15T21:58:12.963Z,17.65
2024-01-15T22:00:40.918Z,17.63
2024-01-15T22:03:08.187Z,17.73
2024-01-15T22:05:35.473Z,16.73
2024-01-15T22:08:03.122Z,18.20
2024-01-15T22:10:30.473Z,17.98
2024-01-15T22:12:57.737Z,18.02
2024-01-15T22:15:24.904Z,18.20
2024-01-15T22:17:52.275Z,18.67
2024-01-15T22:20:19.704Z,16.77
2024-01-15T22:22:46.973Z,18.35
2024-01-15T22:25:14.172Z,18.58
2024-01-15T22:27:41.427Z,17.40
2024-01-15T22:30:08.914Z,18.67
2024-01-15T22:32:36.268Z,18.75
2024-01-15T22:35:03.923Z,17.67
2024-01-15T22:37:32.539Z,17.25
2024-01-15T22:39:59.815Z,17.60
2024-01-15T22:42:27.777Z,16.55
2024-01-15T22:44:55.123Z,17.73
2024-01-15T22:47:23.097Z,19.40
2024-01-15T22:49:50.458Z,17.70
2024-01-15T22:52:17.771Z,18.10
2024-01-15T22:54:44.951Z,17.48
2024-01-15T22:57:12.326Z,18.50
2024-01-15T22:59:39.504Z,18.30
2024-01-15T23:02:07.968Z,16.00
2024-01-15T23:04:35.156Z,16.77
2024-01-15T23:07:02.312Z,18.80
2024-01-15T23:09:29.656Z,17.27
2024-01-15T23:11:56.894Z,16.77
2024-01-15T23:14:24.211Z,17.58
2024-01-15T23:16:51.485Z,16.33
2024-01-15T23:19:19.205Z,16.17
2024-01-15T23:21:46.961Z,14.35
2024-01-15T23:24:14.113Z,16.00
2024-01-15T23:26:41.393Z,16.05
2024-01-15T23:29:08.802Z,16.27
2024-01-15T23:31:41.033Z,16.48
2024-01-15T23:34:09.982Z,16.63
2024-01-15T23:36:37.903Z,15.23
2024-01-15T23:39:05.046Z,14.95
2024-01-15T23:41:32.691Z,17.63
2024-01-15T23:43:59.924Z,16.25
2024-01-15T23:46:27.056Z,16.42
2024-01-15T23:48:54.246Z,14.98
2024-01-15T23:51:22.710Z,15.23
2024-01-15T23:53:50.133Z,14.02
2024-01-15T23:56:17.488Z,15.32
2024-01-15T23:58:45.582Z,15.15
